Veni Vi — LD9966 — position and weather

sailwx.info

Track history (hours):
 
Tides and Currents Weather Stations Pressure Air Temp Water Temp Dewpoint Dewpoint Depression Visibility Wind Speed Wind Dir Waves Ship Positions

Veni Vi

Last reported at 2016-Jul-29 12:17 UTC. Time now 2016-Jul-30 13:04 UTC.
Position N 58°11' E 008°22'.

Length 13 m.

Type: Sailing vessel. MMSI: 257827490.

Date/timePositionNaut miles runAvg speedWind from/ knotsBaromVisibWave heightAir tempDewpointWater temp
2016-Jul-29 12:17N 58°11' E 008°22'3 0.2
2016-Jul-28 18:23N 58°14' E 008°24'4 5.3
2016-Jul-28 17:33N 58°16' E 008°32'5 4.0
2016-Jul-28 16:24N 58°20' E 008°37'50 1.9
2016-Jul-27 14:10N 58°37' E 010°06'5 8.8
2016-Jul-27 13:33N 58°35' E 010°16'13 8.7
2016-Jul-27 12:04N 58°31' E 010°40'5 8.3
2016-Jul-27 11:31N 58°30' E 010°48'7 7.6
2016-Jul-27 10:32N 58°26' E 010°59'8 7.7
2016-Jul-27 09:33N 58°21' E 011°11'1 0.1
2016-Jul-26 21:31N 58°21' E 011°14'0 0.0
2016-Jul-26 15:32N 58°21' E 011°14'0 0.0
2016-Jul-26 14:32N 58°21' E 011°14'0 0.2
2016-Jul-26 13:33N 58°21' E 011°14'6 5.8
2016-Jul-26 12:33N 58°16' E 011°09'8 7.9
2016-Jul-26 11:32N 58°08' E 011°04'7 7.4
2016-Jul-26 10:33N 58°02' E 010°58'22 1.1
2016-Jul-25 14:05N 57°43' E 010°35'0 0.2
2016-Jul-25 13:28N 57°43' E 010°36'6 6.7
2016-Jul-25 12:33N 57°39' E 010°44'7 6.8
2016-Jul-25 11:32N 57°35' E 010°54'7 6.9
2016-Jul-25 10:33N 57°30' E 011°04'7 6.6
2016-Jul-25 09:33N 57°26' E 011°14'7 6.7
2016-Jul-25 08:33N 57°20' E 011°19'7 7.2
2016-Jul-25 07:33N 57°14' E 011°25'7 7.2
2016-Jul-25 06:33N 57°07' E 011°31'7 6.9
2016-Jul-25 05:33N 57°01' E 011°37'7 7.0
2016-Jul-25 04:33N 56°55' E 011°42'7 6.9
2016-Jul-25 03:33N 56°48' E 011°48'7 7.2
2016-Jul-25 02:33N 56°42' E 011°53'7 7.3
2016-Jul-25 01:33N 56°35' E 011°56'7 7.3
2016-Jul-25 00:32N 56°27' E 011°59'23 3.7
2016-Jul-24 18:27N 56°08' E 012°19'0 0.0
2016-Jul-24 17:33N 56°08' E 012°19'2 1.9
2016-Jul-24 16:33N 56°08' E 012°22'7 6.6
2016-Jul-24 15:33N 56°05' E 012°33'7 6.5
2016-Jul-24 14:33N 55°59' E 012°38'5 5.5
2016-Jul-24 13:33N 55°54' E 012°36'7 7.3
2016-Jul-24 12:33N 55°47' E 012°36'1 0.7
2016-Jul-24 11:31N 55°46' E 012°36'0 0.0
2016-Jul-24 10:31N 55°46' E 012°36'0 0.0
2016-Jul-24 09:31N 55°46' E 012°36'0 0.0
2016-Jul-24 08:31N 55°46' E 012°36'0 0.0
2016-Jul-24 07:31N 55°46' E 012°36'0 0.0
2016-Jul-24 06:31N 55°46' E 012°36'0 0.0
2016-Jul-24 05:31N 55°46' E 012°36'0 0.0
2016-Jul-24 04:31N 55°46' E 012°36'0 0.0
2016-Jul-24 03:31N 55°46' E 012°36'0 0.0
2016-Jul-24 02:31N 55°46' E 012°36'0 0.0
2016-Jul-24 01:31N 55°46' E 012°36'0 0.0
2016-Jul-24 00:31N 55°46' E 012°36'0 0.0
2016-Jul-23 23:31N 55°46' E 012°36'0 0.0
2016-Jul-23 22:31N 55°46' E 012°36'0 0.0
2016-Jul-23 21:18N 55°46' E 012°36'0 0.0
2016-Jul-23 20:33N 55°46' E 012°36'0 0.0
2016-Jul-23 19:33N 55°46' E 012°36'0 0.0
2016-Jul-23 18:33N 55°46' E 012°36'0 0.0
2016-Jul-23 17:33N 55°46' E 012°36'2 2.2
2016-Jul-23 16:31N 55°44' E 012°35'0 0.0
2016-Jul-23 15:31N 55°44' E 012°35'0 0.0
2016-Jul-23 14:31N 55°44' E 012°35'0 0.0
2016-Jul-23 13:31N 55°44' E 012°35'3 3.4
2016-Jul-23 12:34N 55°46' E 012°38'0 0.2
2016-Jul-23 11:33N 55°47' E 012°38'1 0.7
2016-Jul-23 10:33N 55°46' E 012°37'1 1.0
2016-Jul-23 09:33N 55°46' E 012°37'2 2.0
2016-Jul-23 08:31N 55°44' E 012°35'0 0.0
2016-Jul-23 07:31N 55°44' E 012°35'0 0.0
2016-Jul-23 06:31N 55°44' E 012°35'0 0.0
2016-Jul-23 04:31N 55°44' E 012°35'0 0.0
2016-Jul-23 03:31N 55°44' E 012°35'0 0.0
2016-Jul-23 02:31N 55°44' E 012°35'0 0.0
2016-Jul-23 01:31N 55°44' E 012°35'0 0.0
2016-Jul-23 00:31N 55°44' E 012°35'0 0.0
2016-Jul-22 23:31N 55°44' E 012°35'0 0.0
2016-Jul-22 22:31N 55°44' E 012°35'0 0.0
2016-Jul-22 21:31N 55°44' E 012°35'0 0.0
2016-Jul-22 20:31N 55°44' E 012°35'0 0.0
2016-Jul-22 19:31N 55°44' E 012°35'0 0.0
2016-Jul-22 12:32N 55°44' E 012°35'0 0.0
2016-Jul-22 11:32N 55°44' E 012°35'0 0.0
2016-Jul-22 00:32N 55°44' E 012°35'1 0.9
2016-Jul-21 23:33N 55°44' E 012°37'6 6.2
2016-Jul-21 22:33N 55°50' E 012°38'6 6.2
2016-Jul-21 21:33N 55°56' E 012°38'6 6.1
2016-Jul-21 20:34N 56°02' E 012°38'5 4.6
2016-Jul-21 19:33N 56°06' E 012°33'4 4.4
2016-Jul-21 18:33N 56°10' E 012°28'33 6.4
2016-Jul-21 13:22N 56°39' E 012°00'6 7.4
2016-Jul-21 12:33N 56°43' E 011°54'7 6.7
2016-Jul-21 11:33N 56°49' E 011°48'6 6.0
2016-Jul-21 10:33N 56°55' E 011°44'7 6.9
2016-Jul-21 09:33N 57°01' E 011°38'7 6.7
2016-Jul-21 08:33N 57°07' E 011°33'7 6.5
2016-Jul-21 07:33N 57°13' E 011°28'6 6.3
2016-Jul-21 06:33N 57°19' E 011°23'6 6.5
2016-Jul-21 05:33N 57°24' E 011°18'7 6.7
2016-Jul-21 04:33N 57°30' E 011°11'7 6.7
2016-Jul-21 03:33N 57°36' E 011°04'7 6.7
2016-Jul-21 02:32N 57°41' E 010°56'7 7.1
2016-Jul-21 01:33N 57°45' E 010°46'8 6.5
2016-Jul-21 00:20N 57°52' E 010°39'14 7.2
2016-Jul-20 22:19N 58°04' E 010°22'6 7.5
2016-Jul-20 21:33N 58°06' E 010°12'7 7.5
2016-Jul-20 20:33N 58°08' E 009°59'8 7.3
2016-Jul-20 19:30N 58°10' E 009°45'7 7.3
2016-Jul-20 18:33N 58°13' E 009°32'7 7.1
2016-Jul-20 17:33N 58°15' E 009°20'21 0.7
2016-Jul-19 13:32N 58°28' E 008°49'6 6.4
2016-Jul-19 12:33N 58°32' E 008°60'  
Track history (hours):
 
Tides and Currents Weather Stations Pressure Air Temp Water Temp Dewpoint Dewpoint Depression Visibility Wind Speed Wind Dir Waves Ship Positions

Veni Vi

Last reported at 2016-Jul-29 12:17 UTC. Time now 2016-Jul-30 13:04 UTC.
Position N 58°11' E 008°22'.

Length 13 m.

Type: Sailing vessel. MMSI: 257827490.

Date/timePositionNaut miles runAvg speedWind from/ knotsBaromVisibWave heightAir tempDewpointWater temp
2016-Jul-29 12:17N 58°11' E 008°22'3 0.2
2016-Jul-28 18:23N 58°14' E 008°24'4 5.3
2016-Jul-28 17:33N 58°16' E 008°32'5 4.0
2016-Jul-28 16:24N 58°20' E 008°37'50 1.9
2016-Jul-27 14:10N 58°37' E 010°06'5 8.8
2016-Jul-27 13:33N 58°35' E 010°16'13 8.7
2016-Jul-27 12:04N 58°31' E 010°40'5 8.3
2016-Jul-27 11:31N 58°30' E 010°48'7 7.6
2016-Jul-27 10:32N 58°26' E 010°59'8 7.7
2016-Jul-27 09:33N 58°21' E 011°11'1 0.1
2016-Jul-26 21:31N 58°21' E 011°14'0 0.0
2016-Jul-26 15:32N 58°21' E 011°14'0 0.0
2016-Jul-26 14:32N 58°21' E 011°14'0 0.2
2016-Jul-26 13:33N 58°21' E 011°14'6 5.8
2016-Jul-26 12:33N 58°16' E 011°09'8 7.9
2016-Jul-26 11:32N 58°08' E 011°04'7 7.4
2016-Jul-26 10:33N 58°02' E 010°58'22 1.1
2016-Jul-25 14:05N 57°43' E 010°35'0 0.2
2016-Jul-25 13:28N 57°43' E 010°36'6 6.7
2016-Jul-25 12:33N 57°39' E 010°44'7 6.8
2016-Jul-25 11:32N 57°35' E 010°54'7 6.9
2016-Jul-25 10:33N 57°30' E 011°04'7 6.6
2016-Jul-25 09:33N 57°26' E 011°14'7 6.7
2016-Jul-25 08:33N 57°20' E 011°19'7 7.2
2016-Jul-25 07:33N 57°14' E 011°25'7 7.2
2016-Jul-25 06:33N 57°07' E 011°31'7 6.9
2016-Jul-25 05:33N 57°01' E 011°37'7 7.0
2016-Jul-25 04:33N 56°55' E 011°42'7 6.9
2016-Jul-25 03:33N 56°48' E 011°48'7 7.2
2016-Jul-25 02:33N 56°42' E 011°53'7 7.3
2016-Jul-25 01:33N 56°35' E 011°56'7 7.3
2016-Jul-25 00:32N 56°27' E 011°59'23 3.7
2016-Jul-24 18:27N 56°08' E 012°19'0 0.0
2016-Jul-24 17:33N 56°08' E 012°19'2 1.9
2016-Jul-24 16:33N 56°08' E 012°22'7 6.6
2016-Jul-24 15:33N 56°05' E 012°33'7 6.5
2016-Jul-24 14:33N 55°59' E 012°38'5 5.5
2016-Jul-24 13:33N 55°54' E 012°36'7 7.3
2016-Jul-24 12:33N 55°47' E 012°36'1 0.7
2016-Jul-24 11:31N 55°46' E 012°36'0 0.0
2016-Jul-24 10:31N 55°46' E 012°36'0 0.0
2016-Jul-24 09:31N 55°46' E 012°36'0 0.0
2016-Jul-24 08:31N 55°46' E 012°36'0 0.0
2016-Jul-24 07:31N 55°46' E 012°36'0 0.0
2016-Jul-24 06:31N 55°46' E 012°36'0 0.0
2016-Jul-24 05:31N 55°46' E 012°36'0 0.0
2016-Jul-24 04:31N 55°46' E 012°36'0 0.0
2016-Jul-24 03:31N 55°46' E 012°36'0 0.0
2016-Jul-24 02:31N 55°46' E 012°36'0 0.0
2016-Jul-24 01:31N 55°46' E 012°36'0 0.0
2016-Jul-24 00:31N 55°46' E 012°36'0 0.0
2016-Jul-23 23:31N 55°46' E 012°36'0 0.0
2016-Jul-23 22:31N 55°46' E 012°36'0 0.0
2016-Jul-23 21:18N 55°46' E 012°36'0 0.0
2016-Jul-23 20:33N 55°46' E 012°36'0 0.0
2016-Jul-23 19:33N 55°46' E 012°36'0 0.0
2016-Jul-23 18:33N 55°46' E 012°36'0 0.0
2016-Jul-23 17:33N 55°46' E 012°36'2 2.2
2016-Jul-23 16:31N 55°44' E 012°35'0 0.0
2016-Jul-23 15:31N 55°44' E 012°35'0 0.0
2016-Jul-23 14:31N 55°44' E 012°35'0 0.0
2016-Jul-23 13:31N 55°44' E 012°35'3 3.4
2016-Jul-23 12:34N 55°46' E 012°38'0 0.2
2016-Jul-23 11:33N 55°47' E 012°38'1 0.7
2016-Jul-23 10:33N 55°46' E 012°37'1 1.0
2016-Jul-23 09:33N 55°46' E 012°37'2 2.0
2016-Jul-23 08:31N 55°44' E 012°35'0 0.0
2016-Jul-23 07:31N 55°44' E 012°35'0 0.0
2016-Jul-23 06:31N 55°44' E 012°35'0 0.0
2016-Jul-23 04:31N 55°44' E 012°35'0 0.0
2016-Jul-23 03:31N 55°44' E 012°35'0 0.0
2016-Jul-23 02:31N 55°44' E 012°35'0 0.0
2016-Jul-23 01:31N 55°44' E 012°35'0 0.0
2016-Jul-23 00:31N 55°44' E 012°35'0 0.0
2016-Jul-22 23:31N 55°44' E 012°35'0 0.0
2016-Jul-22 22:31N 55°44' E 012°35'0 0.0
2016-Jul-22 21:31N 55°44' E 012°35'0 0.0
2016-Jul-22 20:31N 55°44' E 012°35'0 0.0
2016-Jul-22 19:31N 55°44' E 012°35'0 0.0
2016-Jul-22 12:32N 55°44' E 012°35'0 0.0
2016-Jul-22 11:32N 55°44' E 012°35'0 0.0
2016-Jul-22 00:32N 55°44' E 012°35'1 0.9
2016-Jul-21 23:33N 55°44' E 012°37'6 6.2
2016-Jul-21 22:33N 55°50' E 012°38'6 6.2
2016-Jul-21 21:33N 55°56' E 012°38'6 6.1
2016-Jul-21 20:34N 56°02' E 012°38'5 4.6
2016-Jul-21 19:33N 56°06' E 012°33'4 4.4
2016-Jul-21 18:33N 56°10' E 012°28'33 6.4
2016-Jul-21 13:22N 56°39' E 012°00'6 7.4
2016-Jul-21 12:33N 56°43' E 011°54'7 6.7
2016-Jul-21 11:33N 56°49' E 011°48'6 6.0
2016-Jul-21 10:33N 56°55' E 011°44'7 6.9
2016-Jul-21 09:33N 57°01' E 011°38'7 6.7
2016-Jul-21 08:33N 57°07' E 011°33'7 6.5
2016-Jul-21 07:33N 57°13' E 011°28'6 6.3
2016-Jul-21 06:33N 57°19' E 011°23'6 6.5
2016-Jul-21 05:33N 57°24' E 011°18'7 6.7
2016-Jul-21 04:33N 57°30' E 011°11'7 6.7
2016-Jul-21 03:33N 57°36' E 011°04'7 6.7
2016-Jul-21 02:32N 57°41' E 010°56'7 7.1
2016-Jul-21 01:33N 57°45' E 010°46'8 6.5
2016-Jul-21 00:20N 57°52' E 010°39'14 7.2
2016-Jul-20 22:19N 58°04' E 010°22'6 7.5
2016-Jul-20 21:33N 58°06' E 010°12'7 7.5
2016-Jul-20 20:33N 58°08' E 009°59'8 7.3
2016-Jul-20 19:30N 58°10' E 009°45'7 7.3
2016-Jul-20 18:33N 58°13' E 009°32'7 7.1
2016-Jul-20 17:33N 58°15' E 009°20'21 0.7
2016-Jul-19 13:32N 58°28' E 008°49'6 6.4
2016-Jul-19 12:33N 58°32' E 008°60'  

Dump ship's entire track history